Time;durP1;ratioP1;P1;durP2;ratioP2;P2;SDS_P1;SDS_P2;PMS_P1;PMS_P2;Temp;Humidity;BMP_temperature;BMP_pressure;BME280_temperature;BME280_humidity;BME280_pressure;Samples;Min_cycle;Max_cycle;Signal;HPM_P1;HPM_P2
2022/01/29 00:00:38;;;;;;;;;;;5.80;99.90;;;;;;5045282;28;19976;-76
2022/01/29 00:03:05;;;;;;;;;;;5.80;99.90;;;;;;5043399;28;20016;-76
2022/01/29 00:05:32;;;;;;;;;;;5.80;99.90;;;;;;5038890;28;20383;-75
2022/01/29 00:07:58;;;;;;;;;;;5.90;99.90;;;;;;5044624;28;19925;-74
2022/01/29 00:10:25;;;;;;;;;;;5.90;99.90;;;;;;5037876;28;19924;-76
2022/01/29 00:12:53;;;;;;;;;;;5.80;99.90;;;;;;5034695;28;19925;-75
2022/01/29 00:15:20;;;;;;;;;;;5.80;99.90;;;;;;5042769;28;19935;-76
2022/01/29 00:17:47;;;;;;;;;;;5.80;99.90;;;;;;5048624;28;19929;-75
2022/01/29 00:20:13;;;;;;;;;;;5.80;99.90;;;;;;5038257;28;19925;-74
2022/01/29 00:22:40;;;;;;;;;;;5.90;99.90;;;;;;5034949;28;19968;-74
2022/01/29 00:25:08;;;;;;;;;;;5.90;99.90;;;;;;5035308;28;19925;-75
2022/01/29 00:27:36;;;;;;;;;;;5.90;99.90;;;;;;5049138;28;20315;-75
2022/01/29 00:30:08;;;;;;;;;;;5.80;99.90;;;;;;5041845;28;19925;-74
2022/01/29 00:32:34;;;;;;;;;;;5.80;99.90;;;;;;5042602;28;19991;-75
2022/01/29 00:35:01;;;;;;;;;;;5.80;99.90;;;;;;5033532;28;19926;-75
2022/01/29 00:37:28;;;;;;;;;;;5.80;99.90;;;;;;5036343;28;19929;-75
2022/01/29 00:39:54;;;;;;;;;;;5.70;99.90;;;;;;5037472;28;20426;-75
2022/01/29 00:42:21;;;;;;;;;;;5.70;99.90;;;;;;5037440;28;19932;-75
2022/01/29 00:44:48;;;;;;;;;;;5.70;99.90;;;;;;5032606;28;19971;-75
2022/01/29 00:47:16;;;;;;;;;;;5.70;99.90;;;;;;5031187;28;19925;-76
2022/01/29 00:49:43;;;;;;;;;;;5.60;99.90;;;;;;5046408;28;19935;-76
2022/01/29 00:52:09;;;;;;;;;;;5.60;99.90;;;;;;5034399;28;19925;-75
2022/01/29 00:54:36;;;;;;;;;;;5.60;99.90;;;;;;5050592;28;19925;-76
2022/01/29 00:57:03;;;;;;;;;;;5.60;99.90;;;;;;5046068;28;19929;-75
2022/01/29 00:59:31;;;;;;;;;;;5.60;99.90;;;;;;5046057;28;19931;-76
2022/01/29 01:01:58;;;;;;;;;;;5.60;99.90;;;;;;5034321;28;19925;-76
2022/01/29 01:04:26;;;;;;;;;;;5.60;99.90;;;;;;5040969;28;19924;-75
2022/01/29 01:06:52;;;;;;;;;;;5.60;99.90;;;;;;5044267;28;19931;-76
2022/01/29 01:09:19;;;;;;;;;;;5.60;99.90;;;;;;5045718;28;20004;-75
2022/01/29 01:11:45;;;;;;;;;;;5.60;99.90;;;;;;5035720;28;19925;-76
2022/01/29 01:14:12;;;;;;;;;;;5.60;99.90;;;;;;5035790;28;19925;-75
2022/01/29 01:16:39;;;;;;;;;;;5.60;99.90;;;;;;5043121;28;19932;-75
2022/01/29 01:19:05;;;;;;;;;;;5.60;99.90;;;;;;5045990;28;20019;-76
2022/01/29 01:21:33;;;;;;;;;;;5.60;99.90;;;;;;5040762;28;19931;-75
2022/01/29 01:24:00;;;;;;;;;;;5.60;99.90;;;;;;5034578;28;19932;-74
2022/01/29 01:26:27;;;;;;;;;;;5.60;99.90;;;;;;5045400;28;19931;-75
2022/01/29 01:28:53;;;;;;;;;;;5.60;99.90;;;;;;5043936;28;20023;-75
2022/01/29 01:31:20;;;;;;;;;;;5.70;99.90;;;;;;5035131;28;20380;-75
2022/01/29 01:33:48;;;;;;;;;;;5.70;99.90;;;;;;5041235;28;19925;-77
2022/01/29 01:36:17;;;;;;;;;;;5.60;99.90;;;;;;5047124;28;19925;-76
2022/01/29 01:38:49;;;;;;;;;;;5.60;99.90;;;;;;5051822;28;19925;-75
2022/01/29 01:41:21;;;;;;;;;;;5.70;99.90;;;;;;5041265;28;19929;-75
2022/01/29 01:43:48;;;;;;;;;;;5.70;99.90;;;;;;5034155;28;20002;-76
2022/01/29 01:46:15;;;;;;;;;;;5.70;99.90;;;;;;5041710;28;20362;-76
2022/01/29 01:48:41;;;;;;;;;;;5.70;99.90;;;;;;5034820;28;20145;-75
2022/01/29 01:51:08;;;;;;;;;;;5.70;99.90;;;;;;5040205;28;19925;-75
2022/01/29 01:53:35;;;;;;;;;;;5.80;99.90;;;;;;5033316;28;20455;-74
2022/01/29 01:56:03;;;;;;;;;;;5.80;99.90;;;;;;5045184;28;19932;-74
2022/01/29 01:58:29;;;;;;;;;;;5.70;99.90;;;;;;5050676;28;19931;-75
2022/01/29 02:00:56;;;;;;;;;;;5.70;99.90;;;;;;5045488;28;19925;-75
2022/01/29 02:03:23;;;;;;;;;;;5.70;99.90;;;;;;5035097;28;19925;-75
2022/01/29 02:05:51;;;;;;;;;;;5.70;99.90;;;;;;5037075;28;20385;-75
2022/01/29 02:08:17;;;;;;;;;;;5.70;99.90;;;;;;5043425;28;19928;-75
2022/01/29 02:10:47;;;;;;;;;;;5.70;99.90;;;;;;5050603;28;19928;-75
2022/01/29 02:13:15;;;;;;;;;;;5.80;99.90;;;;;;5053049;28;19933;-74
2022/01/29 02:15:42;;;;;;;;;;;5.80;99.90;;;;;;5049651;28;19931;-75
2022/01/29 02:18:14;;;;;;;;;;;5.70;99.90;;;;;;5043308;28;19929;-74
2022/01/29 02:20:43;;;;;;;;;;;5.80;99.90;;;;;;5035725;28;19925;-74
2022/01/29 02:23:11;;;;;;;;;;;5.80;99.90;;;;;;5036438;28;19932;-75
2022/01/29 02:25:39;;;;;;;;;;;5.70;99.90;;;;;;5043325;28;20390;-75
2022/01/29 02:28:07;;;;;;;;;;;5.80;99.90;;;;;;5044799;28;19971;-76
2022/01/29 02:30:35;;;;;;;;;;;5.80;99.90;;;;;;5039427;28;19928;-76
2022/01/29 02:33:04;;;;;;;;;;;5.80;99.90;;;;;;5039228;28;20036;-76
2022/01/29 02:35:30;;;;;;;;;;;5.80;99.90;;;;;;5038002;28;19925;-76
2022/01/29 02:37:57;;;;;;;;;;;5.80;99.90;;;;;;5053312;28;19978;-76
2022/01/29 02:40:26;;;;;;;;;;;5.80;99.90;;;;;;5047797;28;20269;-76
2022/01/29 02:42:55;;;;;;;;;;;5.90;99.90;;;;;;5035881;28;20277;-75
2022/01/29 02:45:21;;;;;;;;;;;5.90;99.90;;;;;;5036333;28;19925;-75
2022/01/29 02:47:48;;;;;;;;;;;5.90;99.90;;;;;;5033219;28;19932;-75
2022/01/29 02:50:15;;;;;;;;;;;5.90;99.90;;;;;;5037030;28;19931;-76
2022/01/29 02:52:41;;;;;;;;;;;6.00;99.90;;;;;;5048514;28;20384;-75
2022/01/29 02:55:08;;;;;;;;;;;6.00;99.90;;;;;;5044699;28;19929;-75
2022/01/29 02:57:36;;;;;;;;;;;6.00;99.90;;;;;;5049744;28;19925;-74
2022/01/29 03:00:03;;;;;;;;;;;6.00;99.90;;;;;;5036057;28;19944;-74
2022/01/29 03:02:30;;;;;;;;;;;6.10;99.90;;;;;;5036215;28;20008;-76
2022/01/29 03:04:57;;;;;;;;;;;6.10;99.90;;;;;;5036852;28;20016;-75
2022/01/29 03:07:24;;;;;;;;;;;6.10;99.90;;;;;;5036414;28;20059;-74
2022/01/29 03:09:50;;;;;;;;;;;6.10;99.90;;;;;;5040777;28;19999;-74
2022/01/29 03:12:17;;;;;;;;;;;6.20;99.90;;;;;;5046731;28;19934;-73
2022/01/29 03:14:45;;;;;;;;;;;6.20;99.90;;;;;;5045298;28;19929;-74
2022/01/29 03:17:12;;;;;;;;;;;6.20;99.90;;;;;;5045787;28;19928;-74
2022/01/29 03:19:38;;;;;;;;;;;6.20;99.90;;;;;;5046929;28;19933;-73
2022/01/29 03:22:05;;;;;;;;;;;6.20;99.90;;;;;;5047679;28;19931;-75
2022/01/29 03:24:32;;;;;;;;;;;6.30;99.90;;;;;;5049683;28;19924;-75
2022/01/29 03:26:58;;;;;;;;;;;6.30;99.90;;;;;;5047671;28;19925;-74
2022/01/29 03:29:25;;;;;;;;;;;6.40;99.90;;;;;;5046524;28;19925;-75
2022/01/29 03:31:53;;;;;;;;;;;6.40;99.90;;;;;;5046333;28;19925;-74
2022/01/29 03:34:20;;;;;;;;;;;6.50;99.90;;;;;;5052575;28;19933;-75
2022/01/29 03:36:46;;;;;;;;;;;6.50;99.90;;;;;;5046806;28;19925;-74
2022/01/29 03:39:13;;;;;;;;;;;6.50;99.90;;;;;;5032568;28;20369;-75
2022/01/29 03:41:40;;;;;;;;;;;6.60;99.90;;;;;;5045504;28;20503;-75
2022/01/29 03:44:07;;;;;;;;;;;6.60;99.90;;;;;;5034070;28;21450;-75
2022/01/29 03:46:34;;;;;;;;;;;6.60;99.90;;;;;;5034188;28;19975;-74
2022/01/29 03:49:02;;;;;;;;;;;6.60;99.90;;;;;;5045351;28;20402;-74
2022/01/29 03:51:28;;;;;;;;;;;6.60;99.90;;;;;;5035953;28;19925;-74
2022/01/29 03:53:55;;;;;;;;;;;6.60;99.90;;;;;;5047264;28;20471;-74
2022/01/29 03:56:22;;;;;;;;;;;6.70;99.90;;;;;;5041108;28;20024;-74
2022/01/29 03:58:48;;;;;;;;;;;6.70;99.90;;;;;;5044516;28;20028;-74
2022/01/29 04:01:15;;;;;;;;;;;6.80;99.90;;;;;;5042874;28;19924;-74
2022/01/29 04:03:42;;;;;;;;;;;6.70;99.90;;;;;;5035454;28;19931;-74
2022/01/29 04:06:10;;;;;;;;;;;6.70;99.90;;;;;;5040434;28;19947;-74
2022/01/29 04:08:41;;;;;;;;;;;6.70;99.90;;;;;;5042868;28;19925;-74
2022/01/29 04:11:07;;;;;;;;;;;6.80;99.90;;;;;;5047398;28;19925;-74
2022/01/29 04:13:36;;;;;;;;;;;6.80;99.90;;;;;;5036307;28;20015;-74
2022/01/29 04:16:02;;;;;;;;;;;6.80;99.90;;;;;;5040582;28;20302;-74
2022/01/29 04:18:29;;;;;;;;;;;6.80;99.90;;;;;;5049581;28;19931;-75
2022/01/29 04:20:55;;;;;;;;;;;6.90;99.90;;;;;;5035412;28;19924;-76
2022/01/29 04:23:23;;;;;;;;;;;6.90;99.90;;;;;;5040190;28;20303;-74
2022/01/29 04:25:52;;;;;;;;;;;6.90;99.90;;;;;;5031528;28;19933;-74
2022/01/29 04:28:20;;;;;;;;;;;6.90;99.90;;;;;;5031821;28;19955;-74
2022/01/29 04:30:52;;;;;;;;;;;6.90;99.90;;;;;;5039766;28;20379;-75
2022/01/29 04:33:28;;;;;;;;;;;7.00;99.90;;;;;;5037587;28;19926;-75
2022/01/29 04:35:55;;;;;;;;;;;7.00;99.90;;;;;;5042406;28;20447;-76
2022/01/29 04:38:22;;;;;;;;;;;7.00;99.90;;;;;;5044328;28;19982;-75
2022/01/29 04:40:50;;;;;;;;;;;7.00;99.90;;;;;;5037891;28;19925;-76
2022/01/29 04:43:16;;;;;;;;;;;7.00;99.90;;;;;;5039277;28;19925;-75
2022/01/29 04:45:43;;;;;;;;;;;7.00;99.90;;;;;;5040958;28;19925;-75
2022/01/29 04:48:10;;;;;;;;;;;7.00;99.90;;;;;;5038310;28;19932;-75
2022/01/29 04:50:37;;;;;;;;;;;7.00;99.90;;;;;;5039902;28;19924;-74
2022/01/29 04:53:04;;;;;;;;;;;7.00;99.90;;;;;;5049938;28;19924;-75
2022/01/29 04:55:31;;;;;;;;;;;7.00;99.90;;;;;;5047051;28;19960;-75
2022/01/29 04:57:59;;;;;;;;;;;7.00;99.90;;;;;;5036396;28;19932;-75
2022/01/29 05:00:25;;;;;;;;;;;7.10;99.90;;;;;;5037993;28;19925;-75
2022/01/29 05:02:52;;;;;;;;;;;7.10;99.90;;;;;;5048323;28;19925;-76
2022/01/29 05:05:23;;;;;;;;;;;7.10;99.90;;;;;;5039512;28;19929;-75
2022/01/29 05:07:49;;;;;;;;;;;7.10;99.90;;;;;;5033927;28;20399;-76
2022/01/29 05:10:16;;;;;;;;;;;7.10;99.90;;;;;;5047680;28;19947;-75
2022/01/29 05:12:48;;;;;;;;;;;7.10;99.90;;;;;;5048114;28;20382;-76
2022/01/29 05:15:23;;;;;;;;;;;7.20;99.90;;;;;;5042728;28;19929;-76
2022/01/29 05:28:47;;;;;;;;;;;7.20;99.90;;;;;;5034441;28;19975;-75
2022/01/29 05:31:15;;;;;;;;;;;7.20;99.90;;;;;;5044079;28;19925;-76
2022/01/29 05:33:41;;;;;;;;;;;7.30;99.90;;;;;;5035220;28;19926;-75
2022/01/29 05:36:08;;;;;;;;;;;7.30;99.90;;;;;;5040212;28;19932;-75
2022/01/29 05:38:35;;;;;;;;;;;7.30;99.90;;;;;;5045244;28;19925;-75
2022/01/29 05:41:02;;;;;;;;;;;7.30;99.90;;;;;;5050541;28;20370;-76
2022/01/29 05:43:29;;;;;;;;;;;7.40;99.90;;;;;;5042472;28;19926;-77
2022/01/29 05:45:55;;;;;;;;;;;7.40;99.90;;;;;;5044450;28;19933;-77
2022/01/29 05:48:23;;;;;;;;;;;7.40;99.90;;;;;;5048367;28;19924;-77
2022/01/29 05:50:50;;;;;;;;;;;7.40;99.90;;;;;;5042327;28;19931;-76
2022/01/29 05:53:17;;;;;;;;;;;7.40;99.90;;;;;;5034400;28;19925;-76
2022/01/29 05:55:43;;;;;;;;;;;7.50;99.90;;;;;;5041277;28;19925;-77
2022/01/29 05:58:10;;;;;;;;;;;7.50;99.90;;;;;;5039042;28;20384;-77
2022/01/29 06:00:37;;;;;;;;;;;7.50;99.90;;;;;;5040110;28;19925;-76
2022/01/29 06:03:04;;;;;;;;;;;7.50;99.90;;;;;;5036785;28;20269;-76
2022/01/29 06:05:32;;;;;;;;;;;7.50;99.90;;;;;;5040453;28;20368;-77
2022/01/29 06:07:59;;;;;;;;;;;7.50;99.90;;;;;;5035492;28;19925;-76
2022/01/29 06:10:26;;;;;;;;;;;7.50;99.90;;;;;;5042380;28;20016;-76
2022/01/29 06:13:03;;;;;;;;;;;7.60;99.90;;;;;;5054923;28;19925;-77
2022/01/29 06:15:33;;;;;;;;;;;7.60;99.90;;;;;;5050187;28;19931;-76
2022/01/29 06:18:00;;;;;;;;;;;7.60;99.90;;;;;;5047036;28;19980;-76
2022/01/29 06:20:27;;;;;;;;;;;7.60;99.90;;;;;;5040203;28;19934;-76
2022/01/29 06:22:55;;;;;;;;;;;7.60;99.90;;;;;;5055723;28;19932;-77
2022/01/29 06:25:22;;;;;;;;;;;7.60;99.90;;;;;;5049686;28;19971;-76
2022/01/29 06:27:48;;;;;;;;;;;7.60;99.90;;;;;;5034127;28;19932;-75
2022/01/29 06:30:15;;;;;;;;;;;7.60;99.90;;;;;;5033897;28;20319;-75
2022/01/29 06:32:42;;;;;;;;;;;7.70;99.90;;;;;;5033943;28;20392;-76
2022/01/29 06:35:10;;;;;;;;;;;7.70;99.90;;;;;;5033520;28;19944;-76
2022/01/29 06:37:36;;;;;;;;;;;7.80;99.90;;;;;;5033192;28;20043;-76
2022/01/29 06:40:05;;;;;;;;;;;7.80;99.90;;;;;;5046283;28;19931;-75
2022/01/29 06:42:32;;;;;;;;;;;7.90;99.90;;;;;;5046655;28;19932;-76
2022/01/29 06:44:59;;;;;;;;;;;7.90;99.90;;;;;;5036402;28;19925;-76
2022/01/29 06:47:25;;;;;;;;;;;7.90;99.90;;;;;;5042412;28;19939;-76
2022/01/29 06:49:52;;;;;;;;;;;8.00;99.90;;;;;;5033324;28;19925;-75
2022/01/29 06:52:19;;;;;;;;;;;7.90;99.90;;;;;;5037816;28;20016;-75
2022/01/29 06:54:45;;;;;;;;;;;8.00;99.90;;;;;;5034886;28;19925;-75
2022/01/29 06:57:13;;;;;;;;;;;8.00;99.90;;;;;;5034103;28;19929;-75
2022/01/29 06:59:40;;;;;;;;;;;8.00;99.90;;;;;;5047462;28;19925;-75
2022/01/29 07:02:07;;;;;;;;;;;8.00;99.90;;;;;;5042796;28;19929;-76
2022/01/29 07:04:33;;;;;;;;;;;7.90;99.90;;;;;;5043440;28;19924;-76
2022/01/29 07:07:00;;;;;;;;;;;7.90;99.90;;;;;;5043414;28;19932;-76
2022/01/29 07:09:27;;;;;;;;;;;7.90;99.90;;;;;;5040202;28;19928;-77
2022/01/29 07:11:56;;;;;;;;;;;7.90;99.90;;;;;;5045855;28;19925;-76
2022/01/29 07:14:24;;;;;;;;;;;7.90;99.90;;;;;;5049590;28;20448;-76
2022/01/29 07:16:51;;;;;;;;;;;8.00;99.90;;;;;;5039785;28;20383;-77
2022/01/29 07:19:18;;;;;;;;;;;8.00;99.90;;;;;;5032140;28;19926;-76
2022/01/29 07:21:44;;;;;;;;;;;8.00;99.90;;;;;;5041630;28;19925;-77
2022/01/29 07:24:11;;;;;;;;;;;8.00;99.90;;;;;;5032703;28;19925;-76
2022/01/29 07:26:38;;;;;;;;;;;8.00;99.90;;;;;;5042023;28;19936;-76
2022/01/29 07:29:04;;;;;;;;;;;8.10;99.90;;;;;;5030733;28;19965;-75
2022/01/29 07:31:32;;;;;;;;;;;8.10;99.90;;;;;;5042998;28;19929;-77
2022/01/29 07:33:59;;;;;;;;;;;8.10;99.90;;;;;;5032876;28;19932;-76
2022/01/29 07:36:26;;;;;;;;;;;8.10;99.90;;;;;;5032576;28;20449;-75
2022/01/29 07:38:55;;;;;;;;;;;8.10;99.90;;;;;;5040062;28;20016;-76
2022/01/29 07:41:22;;;;;;;;;;;8.20;99.90;;;;;;5044098;28;19964;-75
2022/01/29 07:43:48;;;;;;;;;;;8.20;99.90;;;;;;5034343;28;19925;-76
2022/01/29 07:46:15;;;;;;;;;;;8.20;99.90;;;;;;5044038;28;19931;-74
2022/01/29 07:48:46;;;;;;;;;;;8.20;99.90;;;;;;5036131;28;20307;-73
2022/01/29 07:51:13;;;;;;;;;;;8.20;99.90;;;;;;5044337;28;19994;-75
2022/01/29 07:53:39;;;;;;;;;;;8.20;99.90;;;;;;5043730;28;19925;-73
2022/01/29 07:56:09;;;;;;;;;;;8.20;99.90;;;;;;5043244;28;20008;-76
2022/01/29 07:58:36;;;;;;;;;;;8.20;99.90;;;;;;5044463;28;19933;-70
2022/01/29 08:01:03;;;;;;;;;;;8.20;99.90;;;;;;5041116;28;19933;-71
2022/01/29 08:03:30;;;;;;;;;;;8.30;99.90;;;;;;5038388;28;19968;-71
2022/01/29 08:05:58;;;;;;;;;;;8.30;99.90;;;;;;5028627;28;19987;-70
2022/01/29 08:08:25;;;;;;;;;;;8.30;99.90;;;;;;5039037;28;19943;-69
2022/01/29 08:10:52;;;;;;;;;;;8.40;99.90;;;;;;5037886;28;19932;-71
2022/01/29 08:13:19;;;;;;;;;;;8.40;99.90;;;;;;5037655;28;19925;-68
2022/01/29 08:15:46;;;;;;;;;;;8.50;99.90;;;;;;5037492;28;19933;-69
2022/01/29 08:18:12;;;;;;;;;;;8.50;99.90;;;;;;5047392;28;20015;-70
2022/01/29 08:20:39;;;;;;;;;;;8.50;99.90;;;;;;5037668;28;19947;-71
2022/01/29 08:23:08;;;;;;;;;;;8.50;99.90;;;;;;5043817;28;20395;-70
2022/01/29 08:25:35;;;;;;;;;;;8.50;99.90;;;;;;5033742;28;19929;-69
2022/01/29 08:28:01;;;;;;;;;;;8.50;99.90;;;;;;5040118;28;19932;-70
2022/01/29 08:30:28;;;;;;;;;;;8.50;99.90;;;;;;5036344;28;19928;-69
2022/01/29 08:32:55;;;;;;;;;;;8.50;99.90;;;;;;5045034;28;19925;-69
2022/01/29 08:35:22;;;;;;;;;;;8.50;99.90;;;;;;5040154;28;20285;-70
2022/01/29 08:37:48;;;;;;;;;;;8.60;99.90;;;;;;5040288;28;19951;-70
2022/01/29 08:40:16;;;;;;;;;;;8.60;99.90;;;;;;5033442;28;20376;-70
2022/01/29 08:42:43;;;;;;;;;;;8.60;99.90;;;;;;5039391;28;19948;-72
2022/01/29 08:45:10;;;;;;;;;;;8.60;99.90;;;;;;5031844;28;19925;-71
2022/01/29 08:47:37;;;;;;;;;;;8.60;99.90;;;;;;5037089;28;19931;-72
2022/01/29 08:50:04;;;;;;;;;;;8.70;99.90;;;;;;5044385;28;19925;-72
2022/01/29 08:52:30;;;;;;;;;;;8.60;99.90;;;;;;5049211;28;20436;-71
2022/01/29 08:54:57;;;;;;;;;;;8.70;99.90;;;;;;5039149;28;20368;-71
2022/01/29 08:57:25;;;;;;;;;;;8.70;99.90;;;;;;5042502;28;20395;-70
2022/01/29 08:59:52;;;;;;;;;;;8.80;99.90;;;;;;5040534;28;19925;-72
2022/01/29 09:02:18;;;;;;;;;;;8.80;99.90;;;;;;5042499;28;19935;-71
2022/01/29 09:04:45;;;;;;;;;;;8.80;99.90;;;;;;5036551;28;19924;-69
2022/01/29 09:07:12;;;;;;;;;;;8.80;99.90;;;;;;5039665;28;20303;-69
2022/01/29 09:09:44;;;;;;;;;;;8.80;99.90;;;;;;5044158;28;19936;-69
2022/01/29 09:12:11;;;;;;;;;;;8.80;99.90;;;;;;5040497;28;19932;-72
2022/01/29 09:14:39;;;;;;;;;;;8.90;99.90;;;;;;5044132;28;19925;-73
2022/01/29 09:17:06;;;;;;;;;;;8.90;99.90;;;;;;5040940;28;20079;-71
2022/01/29 09:19:33;;;;;;;;;;;8.90;99.90;;;;;;5026169;28;19929;-71
2022/01/29 09:22:00;;;;;;;;;;;9.00;99.90;;;;;;5025313;28;20407;-70
2022/01/29 09:24:28;;;;;;;;;;;9.00;99.90;;;;;;5024096;28;20030;-72
2022/01/29 09:26:55;;;;;;;;;;;9.00;99.90;;;;;;5021920;28;20286;-72
2022/01/29 09:29:21;;;;;;;;;;;9.10;99.90;;;;;;5026607;28;19929;-71
2022/01/29 09:31:49;;;;;;;;;;;9.10;99.90;;;;;;5030538;28;20088;-70
2022/01/29 09:34:16;;;;;;;;;;;9.20;99.90;;;;;;5026527;28;19935;-71
2022/01/29 09:36:43;;;;;;;;;;;9.20;99.90;;;;;;5029309;28;19952;-71
2022/01/29 09:39:09;;;;;;;;;;;9.30;99.90;;;;;;5029516;28;19936;-71
2022/01/29 09:41:37;;;;;;;;;;;9.30;99.90;;;;;;5029073;28;19929;-74
2022/01/29 09:44:04;;;;;;;;;;;9.30;99.90;;;;;;5030296;28;20030;-74
2022/01/29 09:46:31;;;;;;;;;;;9.40;99.90;;;;;;5030087;28;19940;-72
2022/01/29 09:48:59;;;;;;;;;;;9.40;99.90;;;;;;5029138;28;19959;-72
2022/01/29 09:51:27;;;;;;;;;;;9.50;99.90;;;;;;5030785;28;19925;-70
2022/01/29 09:53:53;;;;;;;;;;;9.50;99.90;;;;;;5030535;28;21126;-71
2022/01/29 09:56:20;;;;;;;;;;;9.50;99.90;;;;;;5028908;28;19935;-72
2022/01/29 09:58:47;;;;;;;;;;;9.60;99.90;;;;;;5025058;28;19979;-71
2022/01/29 10:01:14;;;;;;;;;;;9.60;99.90;;;;;;5025094;28;19929;-71
2022/01/29 10:03:40;;;;;;;;;;;9.70;99.90;;;;;;5026356;28;19935;-70
2022/01/29 10:06:15;;;;;;;;;;;9.70;99.90;;;;;;5031398;28;19931;-71
2022/01/29 10:08:42;;;;;;;;;;;9.70;99.90;;;;;;5031987;28;19929;-72
2022/01/29 10:11:18;;;;;;;;;;;9.80;99.90;;;;;;5024630;28;20315;-71
2022/01/29 10:13:45;;;;;;;;;;;9.80;99.90;;;;;;5030335;28;19931;-71
2022/01/29 10:16:12;;;;;;;;;;;9.90;99.90;;;;;;5029581;28;21345;-72
2022/01/29 10:18:40;;;;;;;;;;;9.80;99.90;;;;;;5025340;28;19925;-71
2022/01/29 10:21:08;;;;;;;;;;;9.90;99.90;;;;;;5026797;28;19932;-71
2022/01/29 10:23:36;;;;;;;;;;;10.00;99.90;;;;;;5023740;28;19940;-71
2022/01/29 10:26:04;;;;;;;;;;;10.00;99.90;;;;;;5033155;28;19932;-71
2022/01/29 10:28:31;;;;;;;;;;;10.10;99.90;;;;;;5030835;28;20385;-71
2022/01/29 10:30:59;;;;;;;;;;;10.10;99.90;;;;;;5032864;28;19929;-70
2022/01/29 10:33:27;;;;;;;;;;;10.20;99.90;;;;;;5030917;28;20417;-70
2022/01/29 10:35:55;;;;;;;;;;;10.20;99.90;;;;;;5034987;28;19925;-70
2022/01/29 10:38:22;;;;;;;;;;;10.20;99.90;;;;;;5033714;28;20055;-70
2022/01/29 10:41:09;;;;;;;;;;;10.30;99.90;;;;;;5040774;28;19935;-70
2022/01/29 10:43:36;;;;;;;;;;;10.30;99.90;;;;;;5028774;28;20012;-71
2022/01/29 10:46:03;;;;;;;;;;;10.30;99.90;;;;;;5024708;28;20029;-70
2022/01/29 10:48:42;;;;;;;;;;;10.40;99.90;;;;;;5027301;28;20016;-71
2022/01/29 10:51:11;;;;;;;;;;;10.50;99.90;;;;;;5030495;28;19947;-71
2022/01/29 10:53:38;;;;;;;;;;;10.40;99.90;;;;;;5027013;28;20372;-71
2022/01/29 10:56:07;;;;;;;;;;;10.50;99.90;;;;;;5029107;28;19925;-70
2022/01/29 10:58:40;;;;;;;;;;;10.50;99.90;;;;;;5025464;28;19987;-70
2022/01/29 11:01:14;;;;;;;;;;;10.60;99.90;;;;;;5024925;28;19933;-70
2022/01/29 11:03:41;;;;;;;;;;;10.60;99.90;;;;;;5025339;28;20023;-70
2022/01/29 11:06:08;;;;;;;;;;;10.60;99.90;;;;;;5025898;28;19944;-71
2022/01/29 11:08:35;;;;;;;;;;;10.70;99.90;;;;;;5026160;28;19952;-71
2022/01/29 11:11:02;;;;;;;;;;;10.70;99.90;;;;;;5029067;28;19925;-71
2022/01/29 11:13:31;;;;;;;;;;;10.60;99.90;;;;;;5030277;28;19925;-74
2022/01/29 11:15:58;;;;;;;;;;;10.60;99.90;;;;;;5031173;28;21961;-70
2022/01/29 11:18:25;;;;;;;;;;;10.60;99.90;;;;;;5032871;28;20023;-70
2022/01/29 11:20:52;;;;;;;;;;;10.50;99.90;;;;;;5034251;28;19932;-70
2022/01/29 11:23:19;;;;;;;;;;;10.50;99.90;;;;;;5040769;28;19978;-71
2022/01/29 11:25:46;;;;;;;;;;;10.50;99.90;;;;;;5037043;28;20260;-69
2022/01/29 11:28:13;;;;;;;;;;;10.50;99.90;;;;;;5036624;28;19932;-71
2022/01/29 11:30:43;;;;;;;;;;;10.50;99.90;;;;;;5026368;28;19933;-71
2022/01/29 11:33:10;;;;;;;;;;;10.50;99.90;;;;;;5023884;28;19935;-71
2022/01/29 11:35:50;;;;;;;;;;;10.50;99.90;;;;;;5023597;28;20023;-70
2022/01/29 11:38:26;;;;;;;;;;;10.50;99.90;;;;;;5031888;28;20416;-70
2022/01/29 11:40:57;;;;;;;;;;;10.60;99.90;;;;;;5028524;28;19936;-71
2022/01/29 11:43:25;;;;;;;;;;;10.60;99.90;;;;;;5023466;28;19929;-71
2022/01/29 11:45:54;;;;;;;;;;;10.70;99.90;;;;;;5029761;28;20415;-70
2022/01/29 11:48:50;;;;;;;;;;;10.70;99.90;;;;;;5048461;28;19944;-71
2022/01/29 11:51:40;;;;;;;;;;;10.70;99.90;;;;;;5035897;28;20113;-73
2022/01/29 11:54:07;;;;;;;;;;;10.70;99.90;;;;;;5038964;28;19925;-71
2022/01/29 11:56:35;;;;;;;;;;;10.80;99.90;;;;;;5039919;28;19936;-70
2022/01/29 11:59:20;;;;;;;;;;;10.80;99.90;;;;;;5036615;28;19925;-71
2022/01/29 12:01:49;;;;;;;;;;;10.80;99.90;;;;;;5033517;28;19929;-70
2022/01/29 12:04:16;;;;;;;;;;;10.80;99.90;;;;;;5034842;28;20040;-71
2022/01/29 12:06:58;;;;;;;;;;;10.80;99.90;;;;;;5031832;28;19939;-71
2022/01/29 12:09:29;;;;;;;;;;;10.80;99.90;;;;;;5037339;28;19971;-70
2022/01/29 12:12:16;;;;;;;;;;;10.80;99.90;;;;;;5039552;28;19972;-70
2022/01/29 12:14:43;;;;;;;;;;;10.80;99.90;;;;;;5043573;28;20403;-70
2022/01/29 12:17:12;;;;;;;;;;;10.90;99.90;;;;;;5044210;28;19929;-71
2022/01/29 12:19:40;;;;;;;;;;;10.90;99.90;;;;;;5043208;28;19929;-71
2022/01/29 12:22:14;;;;;;;;;;;10.90;99.90;;;;;;5036216;28;19932;-73
2022/01/29 12:24:49;;;;;;;;;;;10.90;99.90;;;;;;5037251;28;20411;-71
2022/01/29 12:27:15;;;;;;;;;;;11.00;99.90;;;;;;5035689;28;19936;-71
2022/01/29 12:29:42;;;;;;;;;;;11.00;99.90;;;;;;5034948;28;20954;-72
2022/01/29 12:32:09;;;;;;;;;;;11.00;99.90;;;;;;5042740;28;19933;-71
2022/01/29 12:34:37;;;;;;;;;;;11.10;99.90;;;;;;5044390;28;19947;-71
2022/01/29 12:37:09;;;;;;;;;;;11.10;99.90;;;;;;5034483;28;19952;-71
2022/01/29 12:39:36;;;;;;;;;;;11.10;99.90;;;;;;5035802;28;19932;-71
2022/01/29 12:42:11;;;;;;;;;;;11.20;99.90;;;;;;5031912;28;19932;-71
2022/01/29 12:44:37;;;;;;;;;;;11.20;99.90;;;;;;5035144;28;19925;-70
2022/01/29 12:47:04;;;;;;;;;;;11.20;99.90;;;;;;5034418;28;19925;-71
2022/01/29 12:49:41;;;;;;;;;;;11.30;99.90;;;;;;5030989;28;19936;-71
2022/01/29 12:52:08;;;;;;;;;;;11.20;99.90;;;;;;5037092;28;20014;-70
2022/01/29 12:54:35;;;;;;;;;;;11.20;99.90;;;;;;5038270;28;19925;-71
2022/01/29 12:57:02;;;;;;;;;;;11.30;99.90;;;;;;5035045;28;19932;-71
2022/01/29 12:59:29;;;;;;;;;;;11.30;99.90;;;;;;5041991;28;19924;-71
2022/01/29 13:01:56;;;;;;;;;;;11.40;99.90;;;;;;5039602;28;19925;-70
2022/01/29 13:04:23;;;;;;;;;;;11.40;99.90;;;;;;5040879;28;19987;-70
2022/01/29 13:07:00;;;;;;;;;;;11.50;99.90;;;;;;5045746;28;19925;-71
2022/01/29 13:09:27;;;;;;;;;;;11.50;99.90;;;;;;5044807;28;19931;-70
2022/01/29 13:11:57;;;;;;;;;;;11.40;99.90;;;;;;5042136;28;19932;-71
2022/01/29 13:14:24;;;;;;;;;;;11.50;99.90;;;;;;5039882;28;19952;-70
2022/01/29 13:16:52;;;;;;;;;;;11.60;99.90;;;;;;5042317;28;19979;-71
2022/01/29 13:19:21;;;;;;;;;;;11.60;99.90;;;;;;5047572;28;19978;-71
2022/01/29 13:21:47;;;;;;;;;;;11.60;99.90;;;;;;5049358;28;19940;-70
2022/01/29 13:24:33;;;;;;;;;;;11.80;99.90;;;;;;5044850;28;19951;-70
2022/01/29 13:27:07;;;;;;;;;;;11.70;99.90;;;;;;5039900;28;20303;-70
2022/01/29 13:29:34;;;;;;;;;;;11.60;99.90;;;;;;5035349;28;19983;-70
2022/01/29 13:32:01;;;;;;;;;;;11.50;99.90;;;;;;5040185;28;19925;-71
2022/01/29 13:34:29;;;;;;;;;;;11.60;99.90;;;;;;5041992;28;19932;-70
2022/01/29 13:36:55;;;;;;;;;;;11.70;99.90;;;;;;5036643;28;19933;-71
2022/01/29 13:39:23;;;;;;;;;;;11.70;99.90;;;;;;5040675;28;19924;-70
2022/01/29 13:42:04;;;;;;;;;;;11.70;99.90;;;;;;5037560;28;19978;-70
2022/01/29 13:44:32;;;;;;;;;;;11.70;99.90;;;;;;5036576;28;19929;-71
2022/01/29 13:47:05;;;;;;;;;;;11.60;99.90;;;;;;5043190;28;19935;-70
2022/01/29 13:49:32;;;;;;;;;;;11.60;99.90;;;;;;5038756;28;19996;-71
2022/01/29 13:51:58;;;;;;;;;;;11.70;99.90;;;;;;5042191;28;19932;-71
2022/01/29 13:54:25;;;;;;;;;;;11.70;99.90;;;;;;5037875;28;19931;-70
2022/01/29 13:57:05;;;;;;;;;;;11.80;99.90;;;;;;5040321;28;20035;-71
2022/01/29 13:59:35;;;;;;;;;;;11.90;99.90;;;;;;5045022;28;20388;-71
2022/01/29 14:02:04;;;;;;;;;;;11.90;99.90;;;;;;5042796;28;19972;-71
2022/01/29 14:04:33;;;;;;;;;;;12.00;99.90;;;;;;5034913;28;19925;-70
2022/01/29 14:07:00;;;;;;;;;;;12.10;99.90;;;;;;5036724;28;20474;-75
2022/01/29 14:09:30;;;;;;;;;;;12.10;99.90;;;;;;5043371;28;19925;-70
2022/01/29 14:12:05;;;;;;;;;;;12.00;99.90;;;;;;5046781;28;19930;-71
2022/01/29 14:14:33;;;;;;;;;;;12.00;99.90;;;;;;5044054;28;20018;-71
2022/01/29 14:17:01;;;;;;;;;;;12.00;99.90;;;;;;5050730;28;20020;-69
2022/01/29 14:19:29;;;;;;;;;;;12.00;99.90;;;;;;5046895;28;19931;-70
2022/01/29 14:21:57;;;;;;;;;;;11.90;99.90;;;;;;5042584;28;19965;-70
2022/01/29 14:24:24;;;;;;;;;;;11.80;99.90;;;;;;5039475;28;19925;-69
2022/01/29 14:26:51;;;;;;;;;;;11.80;99.90;;;;;;5033255;28;19925;-69
2022/01/29 14:29:17;;;;;;;;;;;11.90;99.90;;;;;;5036086;28;20403;-70
2022/01/29 14:31:45;;;;;;;;;;;12.00;99.90;;;;;;5039790;28;19951;-69
2022/01/29 14:34:12;;;;;;;;;;;12.00;99.90;;;;;;5039042;28;19955;-73
2022/01/29 14:36:41;;;;;;;;;;;12.00;99.90;;;;;;5039135;28;20012;-70
2022/01/29 14:39:08;;;;;;;;;;;12.00;99.90;;;;;;5033776;28;19933;-70
2022/01/29 14:41:35;;;;;;;;;;;12.00;99.90;;;;;;5036317;28;19932;-71